Terminal Aerodrome Forecast
Issued by NWS Melbourne, FL

Home | Current Version | Previous Version | Text Only | Print | Product List | Glossary On
Versions: 1 2 3 4 5 6 7 8 9 10 11 12 13 14 15 16 17 18 19 20 21 22 23 24
000
FTUS42 KMLB 251913 AAA
TAFMCO
TAF AMD
KMCO 251913Z 2519/2624 13011G17KT P6SM VCTS SCT030CB BKN070 BKN250
      TEMPO 2519/2521 VRB15G25KT 3SM TSRA BKN030CB
     FM252100 14010KT P6SM VCSH SCT030 BKN070 BKN120
     FM260100 13005KT P6SM FEW025 BKN120
     FM261400 12010KT P6SM VCSH SCT025 BKN070 OVC250=

USA.gov is the U.S. government's official web portal to all federal, state and local government web resources and services.